createdAt,value
2023-03-21T00:04:33.184Z,90.82
2023-03-21T00:10:14.329Z,90.90
2023-03-21T00:16:05.317Z,90.94
2023-03-21T00:21:55.308Z,90.91
2023-03-21T00:27:42.993Z,91.09
2023-03-21T00:33:21.797Z,91.13
2023-03-21T00:38:49.824Z,91.39
2023-03-21T00:44:16.225Z,91.98
2023-03-21T00:49:41.708Z,92.54
2023-03-21T00:55:07.551Z,92.66
2023-03-21T01:00:33.450Z,92.45
2023-03-21T01:06:07.481Z,92.18
2023-03-21T01:11:32.197Z,92.38
2023-03-21T01:16:56.027Z,92.49
2023-03-21T01:22:21.753Z,92.57
2023-03-21T01:27:46.535Z,92.62
2023-03-21T01:33:11.063Z,92.83
2023-03-21T01:38:35.662Z,93.12
2023-03-21T01:44:00.990Z,93.06
2023-03-21T01:49:36.349Z,92.88
2023-03-21T01:55:14.846Z,92.84
2023-03-21T02:00:48.031Z,92.92
2023-03-21T02:06:53.834Z,93.13
2023-03-21T02:12:28.168Z,93.23
2023-03-21T02:17:59.546Z,93.25
2023-03-21T02:24:15.656Z,93.62
2023-03-21T02:30:00.751Z,93.62
2023-03-21T02:35:54.510Z,93.88
2023-03-21T02:41:38.237Z,94.32
2023-03-21T02:47:13.747Z,94.26
2023-03-21T02:52:40.078Z,94.78
2023-03-21T02:58:13.299Z,95.20
2023-03-21T03:03:43.709Z,95.31
2023-03-21T03:09:32.856Z,95.28
2023-03-21T03:15:08.678Z,95.24
2023-03-21T03:21:10.622Z,95.23
2023-03-21T03:26:48.131Z,95.23
2023-03-21T03:32:45.207Z,95.13
2023-03-21T03:38:14.872Z,95.12
2023-03-21T03:43:48.985Z,94.84
2023-03-21T03:49:22.767Z,94.52
2023-03-21T03:54:51.334Z,94.32
2023-03-21T04:00:17.941Z,94.00
2023-03-21T04:05:46.560Z,93.94
2023-03-21T04:11:16.882Z,93.66
2023-03-21T04:16:45.158Z,93.26
2023-03-21T04:22:09.458Z,93.13
2023-03-21T04:27:36.022Z,93.17
2023-03-21T04:33:20.357Z,92.76
2023-03-21T04:38:50.548Z,92.71
2023-03-21T04:44:17.872Z,92.35
2023-03-21T04:49:44.238Z,92.37
2023-03-21T04:55:10.606Z,92.26
2023-03-21T05:00:38.791Z,92.27
2023-03-21T05:06:03.529Z,91.83
2023-03-21T05:11:31.110Z,91.66
2023-03-21T05:16:57.873Z,91.53
2023-03-21T05:22:24.575Z,91.32
2023-03-21T05:27:54.557Z,91.32
2023-03-21T05:33:22.616Z,90.75
2023-03-21T05:38:47.072Z,90.31
2023-03-21T05:44:11.859Z,90.18
2023-03-21T05:49:37.441Z,89.36
2023-03-21T05:55:02.924Z,88.91
2023-03-21T06:00:30.489Z,88.56
2023-03-21T06:06:17.744Z,88.63
2023-03-21T06:11:55.936Z,88.34
2023-03-21T06:17:26.913Z,88.10
2023-03-21T06:22:56.782Z,87.94
2023-03-21T06:28:21.432Z,87.96
2023-03-21T06:33:47.085Z,87.85
2023-03-21T06:39:11.607Z,88.15
2023-03-21T06:44:37.540Z,88.12
2023-03-21T06:50:06.741Z,88.09
2023-03-21T06:55:37.016Z,88.07
2023-03-21T07:01:03.600Z,88.04
2023-03-21T07:06:29.354Z,87.88
2023-03-21T07:11:54.400Z,87.65
2023-03-21T07:17:22.090Z,87.66
2023-03-21T07:22:46.116Z,87.60
2023-03-21T07:28:13.283Z,87.40
2023-03-21T07:33:39.114Z,87.22
2023-03-21T07:39:03.546Z,86.98
2023-03-21T07:44:27.954Z,86.56
2023-03-21T07:49:59.144Z,86.38
2023-03-21T07:55:23.912Z,86.35
2023-03-21T08:00:49.991Z,85.85
2023-03-21T08:06:15.672Z,85.14
2023-03-21T08:11:40.990Z,84.53
2023-03-21T08:17:07.514Z,84.07
2023-03-21T08:22:31.872Z,84.14
2023-03-21T08:27:56.249Z,83.96
2023-03-21T08:33:23.365Z,83.67
2023-03-21T08:38:49.029Z,83.65
2023-03-21T08:44:14.252Z,83.19
2023-03-21T08:49:38.980Z,83.21
2023-03-21T08:55:04.510Z,82.99
2023-03-21T09:00:28.740Z,82.93
2023-03-21T09:05:55.252Z,83.20
2023-03-21T09:11:19.967Z,83.01
2023-03-21T09:16:44.206Z,82.91
2023-03-21T09:22:14.506Z,83.08
2023-03-21T09:27:39.807Z,83.01
2023-03-21T09:33:10.191Z,82.99
2023-03-21T09:38:37.315Z,82.87
2023-03-21T09:44:29.399Z,82.71
2023-03-21T09:50:12.928Z,82.48
2023-03-21T09:55:41.086Z,82.30
2023-03-21T10:01:35.688Z,82.18
2023-03-21T10:07:04.353Z,81.88
2023-03-21T10:12:32.860Z,81.20
2023-03-21T10:18:05.773Z,80.98
2023-03-21T10:23:31.052Z,80.90
2023-03-21T10:28:58.646Z,80.94
2023-03-21T10:34:23.636Z,80.92
2023-03-21T10:39:51.033Z,80.51
2023-03-21T10:45:21.226Z,80.62
2023-03-21T10:50:49.435Z,80.19
2023-03-21T10:56:14.428Z,79.11
2023-03-21T11:01:42.141Z,77.18
2023-03-21T11:07:10.056Z,77.38
2023-03-21T11:12:38.656Z,76.47
2023-03-21T11:18:22.470Z,76.08
2023-03-21T11:23:50.265Z,76.07
2023-03-21T11:29:31.617Z,75.48
2023-03-21T11:35:06.024Z,74.96
2023-03-21T11:40:35.678Z,75.00
2023-03-21T11:46:06.580Z,74.67
2023-03-21T11:51:46.485Z,74.85
2023-03-21T11:57:27.906Z,74.48
2023-03-21T12:03:07.084Z,74.57
2023-03-21T12:08:38.545Z,75.09
2023-03-21T12:14:24.446Z,75.61
2023-03-21T12:20:10.952Z,76.55
2023-03-21T12:25:42.972Z,77.20
2023-03-21T12:31:30.309Z,77.26
2023-03-21T12:37:03.699Z,77.13
2023-03-21T12:42:46.222Z,77.01
2023-03-21T12:48:16.905Z,77.16
2023-03-21T12:54:08.333Z,76.32
2023-03-21T13:00:19.129Z,76.11
2023-03-21T13:05:52.177Z,75.69
2023-03-21T13:11:22.295Z,75.69
2023-03-21T13:16:56.340Z,75.54
2023-03-21T13:22:29.575Z,74.76
2023-03-21T13:28:06.056Z,73.97
2023-03-21T13:33:35.127Z,73.68
2023-03-21T13:39:08.254Z,73.48
2023-03-21T13:44:50.394Z,74.02
2023-03-21T13:50:15.294Z,74.60
2023-03-21T13:55:46.183Z,74.21
2023-03-21T14:01:32.352Z,73.67
2023-03-21T14:07:08.781Z,73.74
2023-03-21T14:12:44.960Z,74.09
2023-03-21T14:18:21.214Z,73.84
2023-03-21T14:24:20.195Z,73.24
2023-03-21T14:29:46.669Z,71.88
2023-03-21T14:35:13.157Z,71.96
2023-03-21T14:40:38.112Z,70.75
2023-03-21T14:46:02.820Z,70.83
2023-03-21T14:51:27.816Z,71.26
2023-03-21T14:56:57.305Z,70.94
2023-03-21T15:02:27.002Z,70.51
2023-03-21T15:08:18.711Z,70.78
2023-03-21T15:13:55.595Z,71.42
2023-03-21T15:19:27.942Z,71.18
2023-03-21T15:24:58.168Z,71.18
2023-03-21T15:30:28.975Z,71.42
2023-03-21T15:35:56.834Z,70.86
2023-03-21T15:41:21.279Z,71.19
2023-03-21T15:46:49.364Z,71.36
2023-03-21T15:52:16.324Z,71.51
2023-03-21T15:57:52.075Z,71.83
2023-03-21T16:03:30.833Z,71.87
2023-03-21T16:09:11.459Z,71.80
2023-03-21T16:14:36.242Z,71.75
2023-03-21T16:20:01.813Z,72.30
2023-03-21T16:25:26.599Z,72.68
2023-03-21T16:30:50.879Z,73.03
2023-03-21T16:36:20.552Z,73.10
2023-03-21T16:41:45.277Z,73.24
2023-03-21T16:47:21.139Z,73.26
2023-03-21T16:52:45.947Z,73.34
2023-03-21T16:58:16.068Z,73.50
2023-03-21T17:03:40.510Z,73.75
2023-03-21T17:09:04.987Z,74.25
2023-03-21T17:14:29.676Z,74.30
2023-03-21T17:19:54.425Z,74.50
2023-03-21T17:25:20.641Z,74.67
2023-03-21T17:30:45.368Z,75.01
2023-03-21T17:36:13.469Z,75.25
2023-03-21T17:41:38.003Z,75.61
2023-03-21T17:47:02.153Z,75.73
2023-03-21T17:52:26.960Z,75.94
2023-03-21T17:57:52.118Z,76.09
2023-03-21T18:03:18.517Z,76.30
2023-03-21T18:08:45.085Z,76.49
2023-03-21T18:14:18.593Z,76.65
2023-03-21T18:19:45.132Z,76.96
2023-03-21T18:25:11.657Z,77.18
2023-03-21T18:30:53.476Z,77.50
2023-03-21T18:36:25.819Z,77.83
2023-03-21T18:41:55.836Z,78.06
2023-03-21T18:47:22.040Z,78.25
2023-03-21T18:52:46.819Z,78.31
2023-03-21T18:58:13.161Z,78.49
2023-03-21T19:03:37.858Z,78.73
2023-03-21T19:09:03.511Z,79.00
2023-03-21T19:14:28.455Z,79.13
2023-03-21T19:19:52.244Z,79.36
2023-03-21T19:25:17.111Z,79.62
2023-03-21T19:30:49.832Z,79.95
2023-03-21T19:36:21.938Z,80.05
2023-03-21T19:41:48.086Z,80.17
2023-03-21T19:47:12.643Z,80.46
2023-03-21T19:52:37.943Z,80.53
2023-03-21T19:58:02.572Z,80.78
2023-03-21T20:03:27.061Z,80.86
2023-03-21T20:14:37.322Z,80.94
2023-03-21T20:20:11.035Z,81.08
2023-03-21T20:25:35.843Z,81.24
2023-03-21T20:31:01.310Z,81.39
2023-03-21T20:36:40.162Z,81.44
2023-03-21T20:42:06.892Z,81.77
2023-03-21T20:47:32.095Z,81.81
2023-03-21T20:53:06.421Z,82.07
2023-03-21T20:58:57.187Z,82.36
2023-03-21T21:04:20.476Z,82.42
2023-03-21T21:09:46.338Z,82.23
2023-03-21T21:15:12.721Z,82.41
2023-03-21T21:20:40.430Z,82.39
2023-03-21T21:26:07.188Z,82.24
2023-03-21T21:31:35.020Z,82.40
2023-03-21T21:36:59.382Z,82.49
2023-03-21T21:42:23.862Z,82.69
2023-03-21T21:47:49.422Z,82.76
2023-03-21T21:53:19.495Z,82.92
2023-03-21T21:58:46.601Z,83.11
2023-03-21T22:04:11.595Z,83.23
2023-03-21T22:09:36.392Z,83.24
2023-03-21T22:15:00.762Z,83.35
2023-03-21T22:20:25.586Z,83.28
2023-03-21T22:25:52.155Z,83.33
2023-03-21T22:31:17.558Z,83.45
2023-03-21T22:36:47.245Z,83.50
2023-03-21T22:42:11.145Z,83.62
2023-03-21T22:47:35.336Z,83.67
2023-03-21T22:53:00.299Z,83.56
2023-03-21T22:58:25.032Z,83.66
2023-03-21T23:03:49.544Z,83.75
2023-03-21T23:09:13.958Z,83.60
2023-03-21T23:14:38.088Z,83.83
2023-03-21T23:20:02.562Z,83.76
2023-03-21T23:25:29.598Z,83.78
2023-03-21T23:30:54.263Z,83.76
2023-03-21T23:36:20.246Z,83.53
2023-03-21T23:41:45.557Z,84.05
2023-03-21T23:47:10.081Z,84.17
2023-03-21T23:52:34.473Z,84.13
2023-03-21T23:58:00.008Z,83.90
